Time;durP1;ratioP1;P1;durP2;ratioP2;P2;SDS_P1;SDS_P2;PMS_P1;PMS_P2;Temp;Humidity;BMP_temperature;BMP_pressure;BME280_temperature;BME280_humidity;BME280_pressure;Samples;Min_cycle;Max_cycle;Signal;HPM_P1;HPM_P2
2022/05/24 00:00:09;;;;;;;1.95;0.90;;;;;;;12.78;100.00;92129.47;2108161;28;20040;-86
2022/05/24 00:01:10;;;;;;;1.95;0.90;;;;;;;12.81;100.00;92140.03;2123804;27;20027;-87
2022/05/24 00:02:11;;;;;;;1.90;1.00;;;;;;;12.74;100.00;92131.59;2098868;28;20035;-86
2022/05/24 00:03:12;;;;;;;2.35;0.90;;;;;;;12.74;100.00;92134.25;2090733;28;20409;-87
2022/05/24 00:04:13;;;;;;;5.13;0.98;;;;;;;12.87;100.00;92126.75;2099166;28;20051;-87
2022/05/24 00:05:15;;;;;;;2.25;0.82;;;;;;;12.76;100.00;92123.81;2115739;28;20388;-85
2022/05/24 00:06:17;;;;;;;2.67;0.65;;;;;;;12.77;100.00;92120.66;2107332;28;20103;-85
2022/05/24 00:07:18;;;;;;;1.33;0.70;;;;;;;12.75;100.00;92128.44;2090864;28;20021;-86
2022/05/24 00:08:19;;;;;;;3.65;1.10;;;;;;;12.86;100.00;92125.25;2090555;28;20430;-86
2022/05/24 00:09:22;;;;;;;1.05;0.60;;;;;;;12.84;100.00;92127.66;2099749;28;20024;-87
2022/05/24 00:10:29;;;;;;;2.25;1.38;;;;;;;12.85;100.00;92123.78;2099620;28;20016;-85
2022/05/24 00:11:30;;;;;;;3.53;0.90;;;;;;;12.75;100.00;92117.72;2108634;28;20073;-85
2022/05/24 00:12:32;;;;;;;1.33;0.88;;;;;;;12.75;100.00;92112.34;2107042;28;20020;-86
2022/05/24 00:13:34;;;;;;;0.85;0.70;;;;;;;12.92;100.00;92117.34;2090451;28;20044;-86
2022/05/24 00:15:54;;;;;;;3.33;0.90;;;;;;;12.78;100.00;92116.81;2103613;28;20020;-84
2022/05/24 00:16:55;;;;;;;1.20;0.80;;;;;;;12.76;100.00;92116.50;2107070;28;20035;-86
2022/05/24 00:18:04;;;;;;;2.05;0.80;;;;;;;12.68;100.00;92125.34;2098654;28;20059;-84
2022/05/24 00:19:13;;;;;;;0.93;0.88;;;;;;;12.69;100.00;92122.22;2092492;28;20036;-86
2022/05/24 00:20:15;;;;;;;1.25;0.73;;;;;;;12.66;100.00;92125.06;2092813;28;20028;-86
2022/05/24 00:21:16;;;;;;;2.53;0.95;;;;;;;12.72;100.00;92132.00;2090727;28;20039;-84
2022/05/24 00:22:17;;;;;;;1.42;0.80;;;;;;;12.83;100.00;92132.28;2098711;28;20031;-85
2022/05/24 00:23:22;;;;;;;3.53;1.02;;;;;;;12.70;100.00;92128.31;2115369;28;20019;-86
2022/05/24 00:24:23;;;;;;;2.88;1.00;;;;;;;12.65;100.00;92129.69;2108799;28;20106;-84
2022/05/24 00:25:26;;;;;;;1.52;0.80;;;;;;;12.62;100.00;92132.50;2090311;28;20500;-86
2022/05/24 00:26:32;;;;;;;5.80;1.15;;;;;;;12.54;100.00;92135.50;2090791;28;20025;-84
2022/05/24 00:27:33;;;;;;;5.55;1.00;;;;;;;12.50;100.00;92137.59;2091694;28;20929;-86
2022/05/24 00:28:35;;;;;;;2.42;0.88;;;;;;;12.50;100.00;92132.25;2090522;28;20116;-85
2022/05/24 00:29:38;;;;;;;2.58;0.80;;;;;;;12.59;100.00;92131.47;2098790;28;20020;-85
2022/05/24 00:30:39;;;;;;;1.90;0.80;;;;;;;12.75;100.00;92138.41;2090703;28;20033;-86
2022/05/24 00:31:43;;;;;;;1.65;0.70;;;;;;;12.58;100.00;92138.03;2098755;28;20500;-85
2022/05/24 00:32:44;;;;;;;3.08;0.90;;;;;;;12.49;100.00;92132.69;2098815;28;20086;-86
2022/05/24 00:33:45;;;;;;;2.17;1.00;;;;;;;12.40;100.00;92124.69;2106922;27;20454;-84
2022/05/24 00:34:46;;;;;;;1.42;1.00;;;;;;;12.40;100.00;92124.69;2115457;28;20027;-85
2022/05/24 00:35:48;;;;;;;0.90;0.90;;;;;;;12.41;100.00;92128.84;2106697;28;20063;-85
2022/05/24 00:36:49;;;;;;;1.45;1.10;;;;;;;12.40;100.00;92133.47;2098845;28;20094;-86
2022/05/24 00:37:51;;;;;;;1.75;1.00;;;;;;;12.30;100.00;92132.00;2092618;28;20021;-85
2022/05/24 00:38:52;;;;;;;1.88;0.93;;;;;;;12.25;100.00;92136.03;2090393;28;20033;-85
2022/05/24 00:40:36;;;;;;;1.30;0.80;;;;;;;12.23;100.00;92133.06;2098876;28;20051;-85
2022/05/24 00:41:53;;;;;;;4.82;0.70;;;;;;;12.22;100.00;92133.50;2104546;28;20059;-86
2022/05/24 00:42:54;;;;;;;3.35;1.17;;;;;;;12.23;100.00;92129.63;2106682;28;20042;-86
2022/05/24 00:44:00;;;;;;;2.05;1.08;;;;;;;12.22;100.00;92130.84;2106924;28;20468;-86
2022/05/24 00:45:23;;;;;;;1.60;1.05;;;;;;;12.22;100.00;92123.53;2106684;28;20024;-86
2022/05/24 00:46:32;;;;;;;1.83;1.00;;;;;;;12.19;100.00;92129.06;2104804;28;20057;-86
2022/05/24 00:47:38;;;;;;;2.15;0.98;;;;;;;12.17;100.00;92121.47;2106818;28;20035;-86
2022/05/24 00:49:26;;;;;;;1.63;0.82;;;;;;;12.21;100.00;92124.00;2091647;28;20494;-84
2022/05/24 00:50:40;;;;;;;1.85;1.00;;;;;;;12.14;100.00;92113.59;2071769;28;20659;-86
2022/05/24 00:51:49;;;;;;;1.83;1.00;;;;;;;12.13;100.00;92114.78;2060861;28;20146;-86
2022/05/24 00:52:59;;;;;;;1.60;0.85;;;;;;;12.09;100.00;92117.63;2082054;28;20040;-86
2022/05/24 00:54:00;;;;;;;;;;;;;;;12.07;100.00;92117.31;2108517;28;20099;-85
2022/05/24 00:55:01;;;;;;;1.40;0.75;;;;;;;12.17;100.00;92118.06;2107115;28;20029;-85
2022/05/24 00:56:11;;;;;;;1.45;0.80;;;;;;;12.17;100.00;92120.72;2106940;28;20027;-85
2022/05/24 00:57:32;;;;;;;1.48;1.00;;;;;;;12.23;100.00;92110.88;2108099;28;20099;-86
2022/05/24 00:59:02;;;;;;;1.85;0.80;;;;;;;12.26;100.00;92118.03;2101326;28;20031;-85
2022/05/24 01:00:30;;;;;;;2.72;1.00;;;;;;;12.20;100.00;92111.78;2102910;28;20036;-85
2022/05/24 01:01:49;;;;;;;1.55;0.70;;;;;;;12.20;100.00;92120.56;2099588;28;20028;-85
2022/05/24 01:02:50;;;;;;;1.00;1.00;;;;;;;12.22;100.00;92123.53;2100898;28;20406;-84
2022/05/24 01:03:51;;;;;;;2.10;1.00;;;;;;;12.27;100.00;92114.88;2098479;28;20055;-85
2022/05/24 01:04:52;;;;;;;0.93;0.90;;;;;;;12.30;100.00;92113.25;2100335;28;20501;-87
2022/05/24 01:05:54;;;;;;;2.55;1.08;;;;;;;12.32;100.00;92116.22;2102626;28;20021;-86
2022/05/24 01:06:55;;;;;;;2.17;0.90;;;;;;;12.31;100.00;92115.47;2109549;28;20054;-84
2022/05/24 01:07:57;;;;;;;1.77;1.20;;;;;;;12.52;100.00;92119.16;2118069;28;20057;-84
2022/05/24 01:09:04;;;;;;;5.28;0.80;;;;;;;12.46;100.00;92118.25;2118064;28;20093;-85
2022/05/24 01:10:16;;;;;;;1.00;0.70;;;;;;;12.47;100.00;92117.06;2110633;28;20032;-84
2022/05/24 01:11:20;;;;;;;1.00;0.80;;;;;;;12.42;100.00;92114.25;2103181;28;20021;-84
2022/05/24 01:12:30;;;;;;;2.00;0.90;;;;;;;12.60;100.00;92109.59;2102281;28;20099;-84
2022/05/24 01:13:31;;;;;;;1.60;1.02;;;;;;;12.50;100.00;92110.78;2102416;28;20120;-84
2022/05/24 01:14:33;;;;;;;7.75;1.23;;;;;;;12.51;100.00;92108.84;2101150;28;20032;-85
2022/05/24 01:15:36;;;;;;;1.48;1.08;;;;;;;12.48;100.00;92101.75;2109954;28;20090;-86
2022/05/24 01:16:37;;;;;;;0.88;0.88;;;;;;;12.45;100.00;92102.63;2109310;27;20423;-87
2022/05/24 01:17:39;;;;;;;3.28;1.00;;;;;;;12.35;100.00;92104.59;2111478;28;20028;-84
2022/05/24 01:18:40;;;;;;;2.03;0.98;;;;;;;12.30;100.00;92100.59;2098433;28;20397;-86
2022/05/24 01:19:45;;;;;;;1.92;1.10;;;;;;;12.41;100.00;92105.47;2106676;28;20450;-84
2022/05/24 01:20:53;;;;;;;3.28;1.00;;;;;;;12.28;100.00;92100.28;2107264;28;20076;-85
2022/05/24 01:22:11;;;;;;;6.88;1.20;;;;;;;12.42;100.00;92104.25;2099327;28;20048;-87
2022/05/24 01:23:46;;;;;;;1.88;0.90;;;;;;;12.43;100.00;92111.13;2106927;28;20056;-86
2022/05/24 01:25:08;;;;;;;1.05;0.93;;;;;;;12.52;100.00;92111.09;2099055;28;20787;-86
2022/05/24 01:26:46;;;;;;;1.20;1.10;;;;;;;12.58;100.00;92106.59;2095554;28;20482;-85
2022/05/24 01:27:47;;;;;;;2.50;0.85;;;;;;;12.58;100.00;92111.22;2116964;27;20034;-85
2022/05/24 01:28:57;;;;;;;2.78;1.02;;;;;;;12.42;100.00;92112.31;2106440;28;20024;-86
2022/05/24 01:29:58;;;;;;;1.55;1.05;;;;;;;12.41;100.00;92118.88;2099188;28;20464;-85
2022/05/24 01:31:00;;;;;;;2.00;1.23;;;;;;;12.39;100.00;92109.81;2089946;28;20112;-86
2022/05/24 01:36:11;;;;;;;2.28;0.90;;;;;;;12.22;100.00;92104.78;2108731;28;20081;-88
2022/05/24 01:37:13;;;;;;;2.50;1.10;;;;;;;12.23;100.00;92103.59;2107615;28;20031;-87
2022/05/24 01:38:19;;;;;;;1.38;0.90;;;;;;;12.25;100.00;92100.47;2114532;28;20467;-87
2022/05/24 01:39:20;;;;;;;2.45;1.05;;;;;;;12.35;100.00;92096.56;2106971;28;20131;-85
2022/05/24 01:40:22;;;;;;;1.35;0.80;;;;;;;12.28;100.00;92094.19;2114847;28;20015;-88
2022/05/24 01:41:44;;;;;;;2.60;1.23;;;;;;;12.26;100.00;92094.66;2106377;28;20035;-86
2022/05/24 01:42:52;;;;;;;1.17;0.90;;;;;;;12.30;100.00;92094.50;2095736;28;20020;-84
2022/05/24 01:43:56;;;;;;;2.60;1.05;;;;;;;12.27;100.00;92082.75;2091727;28;20013;-88
2022/05/24 01:45:20;;;;;;;2.08;1.10;;;;;;;12.22;100.00;92080.66;2106343;28;20028;-84
2022/05/24 01:46:30;;;;;;;2.35;1.23;;;;;;;12.17;100.00;92083.97;2109469;28;20023;-86
2022/05/24 01:47:34;;;;;;;1.35;1.23;;;;;;;12.16;100.00;92077.13;2107575;28;20384;-86
2022/05/24 01:49:04;;;;;;;2.60;0.80;;;;;;;12.19;100.00;92072.78;2098393;28;20065;-85
2022/05/24 01:50:10;;;;;;;2.13;1.35;;;;;;;12.28;100.00;92067.41;2110060;28;20380;-86
2022/05/24 01:51:15;;;;;;;1.83;1.02;;;;;;;12.24;100.00;92072.91;2114715;28;20366;-85
2022/05/24 01:52:26;;;;;;;3.53;1.30;;;;;;;12.16;100.00;92066.41;2098635;28;20492;-88
2022/05/24 01:53:34;;;;;;;1.83;1.20;;;;;;;12.12;100.00;92075.81;2092696;28;20020;-85
2022/05/24 01:54:39;;;;;;;1.67;1.27;;;;;;;12.00;100.00;92080.13;2096243;28;20089;-85
2022/05/24 01:55:47;;;;;;;0.95;0.90;;;;;;;11.96;100.00;92079.53;2090827;28;20025;-84
2022/05/24 01:56:57;;;;;;;2.25;1.30;;;;;;;11.94;100.00;92090.72;2100736;28;20032;-86
2022/05/24 01:58:03;;;;;;;4.10;1.55;;;;;;;11.97;100.00;92087.13;2099157;28;20044;-85
2022/05/24 01:59:06;;;;;;;3.75;1.00;;;;;;;12.16;100.00;92082.50;2099380;28;20463;-86
2022/05/24 02:00:10;;;;;;;3.38;1.45;;;;;;;12.15;100.00;92083.66;2106583;28;20493;-86
2022/05/24 02:01:25;;;;;;;3.00;1.10;;;;;;;12.11;100.00;92085.75;2098261;28;20540;-87
2022/05/24 02:02:27;;;;;;;1.40;1.15;;;;;;;12.01;100.00;92076.25;2093508;28;20029;-86
2022/05/24 02:04:03;;;;;;;5.68;1.20;;;;;;;11.96;100.00;92079.53;2098106;28;20025;-88
2022/05/24 02:05:06;;;;;;;1.63;1.23;;;;;;;11.94;100.00;92079.25;2102654;28;20020;-87
2022/05/24 02:06:21;;;;;;;1.33;1.10;;;;;;;11.94;100.00;92074.66;2089925;28;20032;-85
2022/05/24 02:07:24;;;;;;;2.78;1.30;;;;;;;11.97;100.00;92062.28;2101688;28;20047;-85
2022/05/24 02:08:26;;;;;;;3.33;1.13;;;;;;;11.99;100.00;92073.28;2106709;28;20015;-85
2022/05/24 02:09:27;;;;;;;2.50;1.25;;;;;;;11.98;100.00;92069.13;2106109;28;20028;-86
2022/05/24 02:10:39;;;;;;;1.90;1.15;;;;;;;12.07;100.00;92075.22;2098247;28;20056;-85
2022/05/24 02:13:29;;;;;;;2.45;1.33;;;;;;;12.20;100.00;92090.34;2139349;27;20646;-84
2022/05/24 02:14:42;;;;;;;7.07;1.20;;;;;;;12.29;100.00;92101.81;2121559;28;20177;-83
2022/05/24 02:15:47;;;;;;;1.20;1.00;;;;;;;12.12;100.00;92089.19;2107971;28;20028;-84
2022/05/24 02:17:14;;;;;;;3.08;1.10;;;;;;;12.31;100.00;92090.63;2105774;28;20480;-84
2022/05/24 02:18:21;;;;;;;2.72;1.10;;;;;;;12.37;100.00;92091.47;2082711;28;20136;-84
2022/05/24 02:19:24;;;;;;;2.25;1.00;;;;;;;12.40;100.00;92085.22;2103164;28;20037;-83
2022/05/24 02:20:29;;;;;;;2.67;1.15;;;;;;;12.26;100.00;92085.88;2105299;28;20471;-83
2022/05/24 02:21:31;;;;;;;4.95;1.63;;;;;;;12.22;100.00;92079.94;2113523;28;20031;-84
2022/05/24 02:22:32;;;;;;;3.25;1.30;;;;;;;12.14;100.00;92084.13;2113515;27;20028;-84
2022/05/24 02:23:42;;;;;;;3.42;1.40;;;;;;;12.13;100.00;92077.28;2121451;28;20030;-84
2022/05/24 02:24:43;;;;;;;2.90;1.42;;;;;;;12.17;100.00;92075.19;2107373;28;20028;-84
2022/05/24 02:25:49;;;;;;;3.25;1.10;;;;;;;12.14;100.00;92086.78;2104552;28;20439;-84
2022/05/24 02:26:51;;;;;;;5.97;1.27;;;;;;;12.14;100.00;92079.50;2097442;28;20480;-84
2022/05/24 02:27:53;;;;;;;2.25;1.20;;;;;;;12.15;100.00;92082.91;2104875;28;20408;-83
2022/05/24 02:28:55;;;;;;;4.30;1.38;;;;;;;12.08;100.00;92087.41;2104552;28;20055;-84
2022/05/24 02:29:57;;;;;;;4.20;1.20;;;;;;;12.01;100.00;92082.34;2096318;28;20024;-84
2022/05/24 02:31:01;;;;;;;6.07;1.50;;;;;;;12.06;100.00;92089.78;2104882;28;20388;-84
2022/05/24 02:32:03;;;;;;;8.32;1.30;;;;;;;12.21;100.00;92097.94;2104980;28;20473;-84
2022/05/24 02:33:05;;;;;;;2.33;1.65;;;;;;;12.13;100.00;92090.69;2113371;27;20023;-84
2022/05/24 02:34:06;;;;;;;1.88;1.10;;;;;;;12.19;100.00;92080.81;2112811;28;20027;-84
2022/05/24 02:35:08;;;;;;;5.55;1.30;;;;;;;12.18;100.00;92096.16;2112769;28;20030;-84
2022/05/24 02:36:09;;;;;;;3.28;1.20;;;;;;;12.22;100.00;92088.72;2112666;28;20026;-84
2022/05/24 02:37:11;;;;;;;3.92;1.50;;;;;;;12.20;100.00;92090.34;2104452;28;20043;-84
2022/05/24 02:38:14;;;;;;;2.45;1.35;;;;;;;12.48;100.00;92094.44;2104528;28;20027;-84
2022/05/24 02:39:15;;;;;;;1.58;0.95;;;;;;;12.37;100.00;92096.84;2096559;28;20035;-84
2022/05/24 02:41:36;;;;;;;2.95;1.30;;;;;;;12.36;100.00;92090.00;2106893;28;20020;-84
2022/05/24 02:42:38;;;;;;;3.60;1.38;;;;;;;12.23;100.00;92087.50;2096003;28;20094;-84
2022/05/24 02:43:39;;;;;;;2.08;1.20;;;;;;;12.17;100.00;92083.97;2096208;28;20020;-84
2022/05/24 02:44:41;;;;;;;4.15;1.30;;;;;;;12.08;100.00;92084.72;2104349;28;20112;-84
2022/05/24 02:45:48;;;;;;;2.15;1.27;;;;;;;12.12;100.00;92083.84;2104460;28;20507;-84
2022/05/24 02:46:49;;;;;;;2.95;1.48;;;;;;;12.02;100.00;92083.84;2096821;28;20501;-83
2022/05/24 02:47:50;;;;;;;2.88;1.40;;;;;;;12.04;100.00;92091.44;2095997;28;20032;-83
2022/05/24 02:48:51;;;;;;;4.45;1.65;;;;;;;12.24;100.00;92088.25;2095940;28;20024;-84
2022/05/24 02:49:52;;;;;;;2.70;1.40;;;;;;;12.12;100.00;92097.97;2095794;28;20040;-84
2022/05/24 02:50:54;;;;;;;2.67;1.27;;;;;;;12.08;100.00;92087.41;2104154;28;20021;-84
2022/05/24 02:51:55;;;;;;;3.78;1.40;;;;;;;12.10;100.00;92084.28;2104255;28;20575;-84
2022/05/24 02:52:56;;;;;;;3.45;1.60;;;;;;;12.03;100.00;92089.97;2089660;28;20017;-84
2022/05/24 02:53:57;;;;;;;1.20;1.10;;;;;;;11.98;100.00;92087.84;2094402;28;20488;-85
2022/05/24 02:54:58;;;;;;;2.05;1.30;;;;;;;12.02;100.00;92083.09;2087606;28;20120;-84
2022/05/24 02:56:03;;;;;;;1.35;1.25;;;;;;;12.06;100.00;92078.31;2095864;28;20032;-85
2022/05/24 02:57:05;;;;;;;4.70;1.23;;;;;;;11.99;100.00;92082.06;2119970;28;20501;-84
2022/05/24 02:58:06;;;;;;;6.18;1.23;;;;;;;11.88;100.00;92084.47;2104232;28;20455;-85
2022/05/24 02:59:08;;;;;;;2.60;1.35;;;;;;;11.95;100.00;92086.09;2096242;28;20398;-86
2022/05/24 03:00:15;;;;;;;2.40;1.45;;;;;;;11.87;100.00;92082.97;2104197;28;20054;-85
2022/05/24 03:01:25;;;;;;;4.65;1.35;;;;;;;11.91;100.00;92080.91;2104944;28;20388;-85
2022/05/24 03:02:26;;;;;;;;;;;;;;;11.81;100.00;92084.75;2115759;27;20024;-85
2022/05/24 03:03:27;;;;;;;5.25;1.38;;;;;;;11.95;100.00;92091.47;2110267;28;20015;-84
2022/05/24 03:04:28;;;;;;;3.22;1.45;;;;;;;11.83;100.00;92099.19;2095932;28;20037;-85
2022/05/24 03:05:29;;;;;;;2.45;1.20;;;;;;;11.78;100.00;92097.09;2095834;28;20028;-84
2022/05/24 03:09:35;;;;;;;2.78;1.40;;;;;;;11.69;100.00;92109.75;2115153;28;19918;-84
2022/05/24 03:10:38;;;;;;;1.25;1.15;;;;;;;11.64;100.00;92118.38;2106089;28;20028;-84
2022/05/24 03:14:22;;;;;;;1.40;1.30;;;;;;;11.60;100.00;92113.91;2115133;28;20031;-84
2022/05/24 03:15:24;;;;;;;4.10;1.40;;;;;;;11.65;100.00;92101.84;2104439;28;20115;-84
2022/05/24 03:16:26;;;;;;;2.95;1.33;;;;;;;11.58;100.00;92110.91;2095796;28;20021;-84
2022/05/24 03:17:28;;;;;;;4.72;1.30;;;;;;;11.58;100.00;92108.25;2096212;28;20032;-85
2022/05/24 03:18:29;;;;;;;2.00;1.20;;;;;;;11.56;100.00;92107.22;2096018;28;20028;-84
2022/05/24 03:19:30;;;;;;;2.60;1.40;;;;;;;11.53;100.00;92114.19;2095727;28;20575;-84
2022/05/24 03:20:33;;;;;;;2.05;1.08;;;;;;;11.52;100.00;92112.72;2103923;28;21769;-85
2022/05/24 03:21:34;;;;;;;2.88;1.40;;;;;;;11.55;100.00;92111.09;2112658;28;20024;-84
2022/05/24 03:22:35;;;;;;;2.30;1.30;;;;;;;11.59;100.00;92115.09;2112526;28;20027;-84
2022/05/24 03:23:36;;;;;;;4.13;1.40;;;;;;;11.55;100.00;92105.75;2104484;28;20052;-84
2022/05/24 03:24:38;;;;;;;2.50;1.25;;;;;;;11.64;100.00;92089.69;2094976;28;20031;-84
2022/05/24 03:25:39;;;;;;;1.95;1.30;;;;;;;11.63;100.00;92071.38;2106716;27;20111;-84
2022/05/24 03:26:40;;;;;;;1.90;1.13;;;;;;;11.62;100.00;92057.25;2106664;28;20412;-84
2022/05/24 03:27:41;;;;;;;2.50;1.30;;;;;;;11.53;100.00;92041.94;2098738;28;20459;-85
2022/05/24 03:28:43;;;;;;;2.80;1.50;;;;;;;11.74;100.00;92058.28;2098510;28;20111;-85
2022/05/24 03:29:47;;;;;;;3.58;1.40;;;;;;;11.65;100.00;92069.00;2098134;28;20107;-84
2022/05/24 03:30:49;;;;;;;3.50;1.55;;;;;;;11.83;100.00;92066.31;2090348;28;20452;-84
2022/05/24 03:31:52;;;;;;;5.25;1.80;;;;;;;11.74;100.00;92067.06;2090592;28;20041;-84
2022/05/24 03:32:53;;;;;;;4.15;1.48;;;;;;;11.58;100.00;92067.34;2090432;28;20547;-85
2022/05/24 03:33:55;;;;;;;3.00;1.27;;;;;;;11.53;100.00;92078.66;2082014;28;20029;-85
2022/05/24 03:34:56;;;;;;;4.72;1.50;;;;;;;11.50;100.00;92074.97;2081949;28;20025;-85
2022/05/24 03:35:58;;;;;;;1.55;1.30;;;;;;;11.50;100.00;92074.97;2090178;28;20408;-84
2022/05/24 03:36:59;;;;;;;3.20;1.58;;;;;;;11.40;100.00;92080.75;2098393;28;20082;-84
2022/05/24 03:38:00;;;;;;;7.80;1.60;;;;;;;11.36;100.00;92086.22;2098364;28;20060;-84
2022/05/24 03:39:01;;;;;;;3.03;1.50;;;;;;;11.29;100.00;92081.94;2098527;28;20032;-84
2022/05/24 03:40:05;;;;;;;4.28;1.50;;;;;;;11.30;100.00;92091.44;2090157;28;20028;-85
2022/05/24 03:41:06;;;;;;;2.35;1.50;;;;;;;11.30;100.00;92106.75;2090604;28;20032;-84
2022/05/24 03:42:08;;;;;;;2.72;1.15;;;;;;;11.30;100.00;92112.09;2102015;28;20024;-83
2022/05/24 03:43:12;;;;;;;3.95;1.20;;;;;;;11.24;100.00;92117.31;2090223;28;20028;-84
2022/05/24 03:44:13;;;;;;;3.33;1.30;;;;;;;11.22;100.00;92117.00;2090748;28;20029;-84
2022/05/24 03:45:14;;;;;;;2.33;1.58;;;;;;;11.36;100.00;92115.66;2090273;28;20021;-84
2022/05/24 03:46:15;;;;;;;1.92;1.20;;;;;;;11.30;100.00;92120.13;2090072;28;20021;-84
2022/05/24 03:47:16;;;;;;;10.65;1.55;;;;;;;11.25;100.00;92118.03;2090386;28;20024;-86
2022/05/24 03:48:18;;;;;;;5.40;1.30;;;;;;;11.19;100.00;92109.84;2090260;28;20465;-84
2022/05/24 03:49:21;;;;;;;3.90;1.50;;;;;;;11.20;100.00;92107.94;2090255;28;20116;-85
2022/05/24 03:50:25;;;;;;;5.57;1.55;;;;;;;11.20;100.00;92111.34;2098823;28;20031;-84
2022/05/24 03:51:27;;;;;;;1.88;1.45;;;;;;;11.25;100.00;92112.69;2106816;28;20028;-84
2022/05/24 03:52:29;;;;;;;2.50;1.30;;;;;;;11.25;100.00;92110.75;2106499;28;20028;-85
2022/05/24 03:53:30;;;;;;;1.67;1.17;;;;;;;11.23;100.00;92105.09;2098368;28;20027;-84
2022/05/24 03:54:31;;;;;;;3.30;1.30;;;;;;;11.25;100.00;92110.03;2097686;28;20098;-84
2022/05/24 03:55:32;;;;;;;3.92;1.20;;;;;;;11.19;100.00;92117.13;2090056;28;20028;-84
2022/05/24 03:56:35;;;;;;;1.58;1.33;;;;;;;11.24;100.00;92121.91;2106673;28;20475;-84
2022/05/24 03:58:56;;;;;;;8.10;1.55;;;;;;;11.09;100.00;92129.75;2103564;28;20021;-84
2022/05/24 03:59:57;;;;;;;2.65;1.40;;;;;;;11.02;100.00;92124.69;2098036;28;20111;-84
2022/05/24 04:00:58;;;;;;;4.18;1.50;;;;;;;11.04;100.00;92131.06;2089993;28;20405;-85
2022/05/24 04:01:59;;;;;;;3.78;1.30;;;;;;;11.05;100.00;92124.53;2100185;28;20158;-84
2022/05/24 04:03:01;;;;;;;2.17;1.38;;;;;;;11.13;100.00;92130.34;2098567;28;20826;-83
2022/05/24 04:04:02;;;;;;;2.10;1.30;;;;;;;11.22;100.00;92126.94;2115227;28;20031;-84
2022/05/24 04:05:04;;;;;;;2.72;1.23;;;;;;;11.18;100.00;92135.13;2114951;28;20023;-85
2022/05/24 04:06:05;;;;;;;2.28;1.15;;;;;;;11.36;100.00;92131.72;2106551;28;20035;-84
2022/05/24 04:07:06;;;;;;;3.33;1.33;;;;;;;11.33;100.00;92137.97;2090002;28;20075;-84
2022/05/24 04:08:09;;;;;;;7.13;1.10;;;;;;;11.24;100.00;92135.28;2098313;28;20107;-84
2022/05/24 04:09:31;;;;;;;5.20;1.55;;;;;;;11.21;100.00;92134.22;2106821;28;20027;-84
2022/05/24 04:10:33;;;;;;;5.00;1.50;;;;;;;11.21;100.00;92130.81;2109600;28;20015;-84
2022/05/24 04:11:34;;;;;;;2.42;1.25;;;;;;;11.23;100.00;92128.44;2098073;28;20029;-83
2022/05/24 04:12:35;;;;;;;2.75;1.60;;;;;;;11.24;100.00;92124.59;2089532;28;20067;-85
2022/05/24 04:13:40;;;;;;;2.45;1.25;;;;;;;11.28;100.00;92127.84;2089842;28;20029;-84
2022/05/24 04:14:41;;;;;;;2.40;1.17;;;;;;;11.32;100.00;92131.84;2090349;28;20028;-85
2022/05/24 04:15:42;;;;;;;4.43;1.45;;;;;;;11.31;100.00;92135.72;2089556;28;20424;-84
2022/05/24 04:16:43;;;;;;;5.30;1.80;;;;;;;11.31;100.00;92135.72;2089665;28;20456;-84
2022/05/24 04:17:46;;;;;;;1.58;1.02;;;;;;;11.33;100.00;92132.63;2097995;28;20016;-84
2022/05/24 04:18:47;;;;;;;2.35;1.25;;;;;;;11.50;100.00;92135.75;2090012;28;20078;-84
2022/05/24 04:19:49;;;;;;;3.15;0.88;;;;;;;11.52;100.00;92128.78;2089784;28;20493;-84
2022/05/24 04:20:50;;;;;;;2.25;1.48;;;;;;;11.48;100.00;92130.84;2089472;28;20025;-85
2022/05/24 04:21:51;;;;;;;2.10;1.10;;;;;;;11.47;100.00;92124.00;2089636;28;20297;-84
2022/05/24 04:22:54;;;;;;;4.32;1.38;;;;;;;11.45;100.00;92122.97;2089735;28;20031;-85
2022/05/24 04:23:55;;;;;;;2.85;1.00;;;;;;;11.45;100.00;92118.34;2094266;28;20023;-84
2022/05/24 04:24:56;;;;;;;2.38;1.35;;;;;;;11.54;100.00;92129.06;2081364;28;20383;-84
2022/05/24 04:25:57;;;;;;;2.25;1.10;;;;;;;11.62;100.00;92126.84;2081182;28;20025;-84
2022/05/24 04:26:58;;;;;;;2.13;1.20;;;;;;;11.64;100.00;92123.72;2081362;28;20029;-85
2022/05/24 04:27:59;;;;;;;8.68;1.20;;;;;;;11.56;100.00;92120.59;2098072;28;20032;-84
2022/05/24 04:29:00;;;;;;;1.85;1.20;;;;;;;11.48;100.00;92117.47;2114743;28;20038;-84
2022/05/24 04:30:06;;;;;;;2.85;1.27;;;;;;;11.54;100.00;92126.38;2113274;28;20030;-85
2022/05/24 04:31:07;;;;;;;8.27;1.15;;;;;;;11.53;100.00;92132.19;2106180;28;20049;-84
2022/05/24 04:32:09;;;;;;;4.82;1.30;;;;;;;11.50;100.00;92143.78;2097965;28;20024;-85
2022/05/24 04:33:10;;;;;;;1.17;1.00;;;;;;;11.48;100.00;92136.19;2106225;28;20020;-84
2022/05/24 04:34:12;;;;;;;2.05;1.10;;;;;;;11.50;100.00;92130.38;2106243;28;20032;-85
2022/05/24 04:35:13;;;;;;;1.95;1.20;;;;;;;11.50;100.00;92136.50;2098078;28;20035;-85
2022/05/24 04:36:14;;;;;;;5.45;1.20;;;;;;;11.45;100.00;92131.00;2105126;28;20353;-85
2022/05/24 04:37:15;;;;;;;2.08;1.00;;;;;;;11.58;100.00;92126.97;2106185;28;20032;-85
2022/05/24 04:38:16;;;;;;;6.18;1.20;;;;;;;11.51;100.00;92138.00;2106205;28;20102;-85
2022/05/24 04:39:17;;;;;;;3.28;1.20;;;;;;;11.49;100.00;92136.94;2089623;28;20555;-84
2022/05/24 04:40:18;;;;;;;3.50;1.42;;;;;;;11.48;100.00;92141.56;2097935;28;20050;-84
2022/05/24 04:42:39;;;;;;;7.82;1.90;;;;;;;11.55;100.00;92148.56;2103167;28;20047;-84
2022/05/24 04:43:40;;;;;;;7.55;1.80;;;;;;;11.53;100.00;92151.66;2097805;28;20028;-85
2022/05/24 04:44:41;;;;;;;5.10;1.25;;;;;;;11.59;100.00;92141.13;2106417;28;20032;-85
2022/05/24 04:45:42;;;;;;;3.00;1.48;;;;;;;11.55;100.00;92140.53;2097716;28;20059;-84
2022/05/24 04:48:05;;;;;;;2.60;1.30;;;;;;;11.78;100.00;92134.56;2102910;28;20054;-83
2022/05/24 04:49:06;;;;;;;3.75;1.15;;;;;;;11.81;100.00;92147.06;2098031;28;20028;-84
2022/05/24 04:50:12;;;;;;;3.25;1.08;;;;;;;11.72;100.00;92147.06;2097728;28;20020;-85
2022/05/24 04:51:13;;;;;;;1.92;1.23;;;;;;;11.77;100.00;92156.44;2098216;28;20488;-84
2022/05/24 04:52:15;;;;;;;1.20;1.10;;;;;;;11.83;100.00;92158.09;2097764;28;20116;-84
2022/05/24 04:53:17;;;;;;;4.82;1.15;;;;;;;11.87;100.00;92157.22;2106341;28;20377;-84
2022/05/24 04:54:19;;;;;;;2.55;1.15;;;;;;;11.91;100.00;92153.19;2112318;28;20491;-84
2022/05/24 04:55:20;;;;;;;5.93;1.30;;;;;;;12.06;100.00;92159.41;2097938;28;20473;-84
2022/05/24 04:56:21;;;;;;;4.15;1.20;;;;;;;11.99;100.00;92154.38;2097730;28;20037;-84
2022/05/24 04:57:24;;;;;;;5.80;1.00;;;;;;;11.97;100.00;92156.00;2106235;28;20491;-85
2022/05/24 04:58:26;;;;;;;6.07;1.40;;;;;;;12.01;100.00;92159.28;2106375;28;20046;-84
2022/05/24 04:59:27;;;;;;;4.20;1.30;;;;;;;12.01;100.00;92168.06;2114429;27;20118;-84
2022/05/24 05:00:28;;;;;;;4.75;1.10;;;;;;;12.16;100.00;92170.88;2123182;27;20429;-84
2022/05/24 05:01:29;;;;;;;8.13;1.20;;;;;;;12.21;100.00;92162.25;2105978;28;20031;-84
2022/05/24 05:02:30;;;;;;;2.03;1.13;;;;;;;12.39;100.00;92166.81;2097616;28;20024;-84
2022/05/24 05:03:32;;;;;;;4.00;1.20;;;;;;;12.33;100.00;92160.56;2106211;28;20031;-84
2022/05/24 05:04:35;;;;;;;8.05;1.92;;;;;;;12.39;100.00;92166.81;2106125;28;20047;-84
2022/05/24 05:05:37;;;;;;;4.10;1.10;;;;;;;12.57;100.00;92166.78;2098172;28;20063;-84
2022/05/24 05:06:45;;;;;;;2.95;1.33;;;;;;;12.58;100.00;92159.47;2097966;28;20090;-84
2022/05/24 05:07:46;;;;;;;7.95;1.23;;;;;;;12.56;100.00;92153.84;2091246;28;20445;-84
2022/05/24 05:08:47;;;;;;;5.13;1.20;;;;;;;12.60;100.00;92154.41;2089577;28;20036;-84
2022/05/24 05:09:50;;;;;;;4.78;1.42;;;;;;;12.58;100.00;92156.78;2089370;28;20024;-85
2022/05/24 05:10:52;;;;;;;2.88;1.00;;;;;;;12.60;100.00;92149.06;2089992;28;20657;-84
2022/05/24 05:11:53;;;;;;;5.05;1.38;;;;;;;12.59;100.00;92150.97;2106629;28;20024;-84
2022/05/24 05:12:55;;;;;;;3.72;1.00;;;;;;;12.59;100.00;92152.91;2113946;28;20035;-86
2022/05/24 05:13:57;;;;;;;9.15;1.50;;;;;;;12.81;100.00;92158.78;2105882;28;20590;-86
2022/05/24 05:14:58;;;;;;;5.00;1.00;;;;;;;12.74;100.00;92158.41;2097665;28;20584;-84
2022/05/24 05:15:59;;;;;;;3.92;0.98;;;;;;;12.81;100.00;92161.47;2097551;28;20024;-84
2022/05/24 05:17:00;;;;;;;1.23;0.80;;;;;;;12.76;100.00;92167.47;2089352;28;20025;-85
2022/05/24 05:18:04;;;;;;;3.08;1.08;;;;;;;12.72;100.00;92169.56;2089541;28;20033;-83